Wetterdaten: Woche 30.10.17 - 05.11.17 (KW44)
Datum Zeit Temp. I. Temp. A. Feuchte I. Feuchte A. Luftdruck Regen Wind Richtung Sonnenschein UV Solar Taupunkt Windchill Windben
30.10.2017 00:00 22,6 C 3,9 C 60 % 90 % 1015,6 hPa 0,0 l/m 8,0 km/h (2 Bft) W 0,00 h 0,0 UV-I 0 W/m 2,4 C 2,3 C 13,5 km/h (3 Bft)
30.10.2017 01:00 22,5 C 4,0 C 61 % 89 % 1015,8 hPa 0,0 l/m 10,1 km/h (2 Bft) W 0,00 h 0,0 UV-I 0 W/m 2,3 C 1,0 C 16,0 km/h (3 Bft)
30.10.2017 02:00 22,5 C 4,1 C 62 % 90 % 1016,2 hPa 0,4 l/m 6,1 km/h (2 Bft) NW 0,00 h 0,0 UV-I 0 W/m 2,6 C 3,1 C 10,4 km/h (2 Bft)
30.10.2017 03:00 22,5 C 3,9 C 62 % 91 % 1016,5 hPa 0,0 l/m 7,8 km/h (2 Bft) W 0,00 h 0,0 UV-I 0 W/m 2,6 C 2,2 C 12,6 km/h (3 Bft)
30.10.2017 04:00 22,5 C 4,1 C 62 % 90 % 1016,8 hPa 0,0 l/m 8,1 km/h (2 Bft) W 0,00 h 0,0 UV-I 0 W/m 2,6 C 2,6 C 12,8 km/h (3 Bft)
30.10.2017 05:00 22,6 C 4,0 C 62 % 90 % 1017,5 hPa 0,2 l/m 7,2 km/h (2 Bft) W 0,00 h 0,0 UV-I 0 W/m 2,5 C 2,7 C 12,2 km/h (2 Bft)
30.10.2017 06:00 22,8 C 3,7 C 61 % 91 % 1018,0 hPa 0,0 l/m 8,0 km/h (2 Bft) W 0,00 h 0,0 UV-I 0 W/m 2,3 C 2,1 C 13,1 km/h (3 Bft)
30.10.2017 07:00 23,1 C 3,5 C 60 % 92 % 1019,0 hPa 0,0 l/m 8,3 km/h (2 Bft) W 0,00 h 0,0 UV-I 14 W/m 2,3 C 1,7 C 12,9 km/h (3 Bft)
30.10.2017 08:00 23,1 C 3,9 C 60 % 92 % 1019,7 hPa 0,0 l/m 8,5 km/h (2 Bft) W 0,00 h 0,5 UV-I 47 W/m 2,6 C 1,8 C 14,3 km/h (3 Bft)
30.10.2017 09:00 23,1 C 4,5 C 58 % 89 % 1020,3 hPa 0,0 l/m 12,6 km/h (3 Bft) W-NW 0,05 h 0,7 UV-I 95 W/m 2,9 C 0,1 C 19,8 km/h (4 Bft)
30.10.2017 10:00 23,2 C 5,8 C 52 % 82 % 1020,9 hPa 0,0 l/m 12,7 km/h (3 Bft) W-NW 0,38 h 1,0 UV-I 167 W/m 2,9 C 1,4 C 19,3 km/h (3 Bft)
30.10.2017 11:00 23,2 C 6,5 C 46 % 75 % 1021,4 hPa 0,0 l/m 12,1 km/h (2 Bft) W-NW 0,35 h 1,0 UV-I 181 W/m 2,3 C 2,7 C 18,6 km/h (3 Bft)
30.10.2017 12:00 23,6 C 8,6 C 43 % 60 % 1021,6 hPa 0,0 l/m 13,6 km/h (3 Bft) W-NW 0,90 h 1,6 UV-I 488 W/m 1,3 C 4,3 C 21,4 km/h (4 Bft)
30.10.2017 13:00 22,2 C 8,4 C 37 % 55 % 1022,0 hPa 0,0 l/m 13,3 km/h (3 Bft) W-NW 0,68 h 1,2 UV-I 314 W/m -0,1 C 4,2 C 20,3 km/h (4 Bft)
30.10.2017 14:00 23,2 C 6,8 C 43 % 65 % 1022,4 hPa 0,0 l/m 7,3 km/h (2 Bft) NW 0,18 h 0,6 UV-I 106 W/m 0,7 C 5,6 C 12,5 km/h (3 Bft)
30.10.2017 15:00 23,6 C 7,9 C 46 % 61 % 1022,8 hPa 0,0 l/m 9,7 km/h (2 Bft) W-NW 0,45 h 0,5 UV-I 146 W/m 0,8 C 5,4 C 15,5 km/h (3 Bft)
30.10.2017 16:00 23,4 C 6,1 C 49 % 67 % 1023,3 hPa 0,0 l/m 6,2 km/h (2 Bft) W 0,00 h 0,0 UV-I 17 W/m 0,4 C 5,2 C 10,7 km/h (2 Bft)
30.10.2017 17:00 23,2 C 5,1 C 50 % 72 % 1024,0 hPa 0,0 l/m 1,7 km/h (1 Bft) W-NW 0,00 h 0,0 UV-I 0 W/m 0,6 C 5,1 C 3,5 km/h (1 Bft)
30.10.2017 18:00 23,0 C 4,2 C 55 % 79 % 1025,0 hPa 0,0 l/m 2,2 km/h (1 Bft) W 0,00 h 0,0 UV-I 0 W/m 0,8 C 4,2 C 4,0 km/h (1 Bft)
30.10.2017 19:00 22,8 C 3,7 C 54 % 81 % 1025,4 hPa 0,0 l/m 2,4 km/h (1 Bft) W 0,00 h 0,0 UV-I 0 W/m 0,8 C 3,7 C 4,3 km/h (1 Bft)
30.10.2017 20:00 22,7 C 3,3 C 55 % 85 % 1025,8 hPa 0,0 l/m 2,5 km/h (1 Bft) W-SW 0,00 h 0,0 UV-I 0 W/m 1,0 C 3,3 C 4,5 km/h (1 Bft)
30.10.2017 21:00 22,6 C 3,6 C 56 % 85 % 1026,1 hPa 0,0 l/m 4,2 km/h (1 Bft) W-SW 0,00 h 0,0 UV-I 0 W/m 1,3 C 3,6 C 7,3 km/h (2 Bft)
30.10.2017 22:00 22,7 C 3,8 C 56 % 86 % 1026,2 hPa 0,0 l/m 3,1 km/h (1 Bft) N 0,00 h 0,0 UV-I 0 W/m 1,7 C 3,6 C 2,3 km/h (1 Bft)
30.10.2017 23:00 22,7 C 3,8 C 57 % 87 % 1026,2 hPa 0,0 l/m 4,5 km/h (1 Bft) N 0,00 h 0,0 UV-I 0 W/m 2,0 C 3,9 C 3,5 km/h (1 Bft)
31.10.2017 00:00 22,6 C 4,1 C 57 % 87 % 1026,0 hPa 0,0 l/m 5,1 km/h (1 Bft) W-SW 0,00 h 0,0 UV-I 0 W/m 2,2 C 3,9 C 8,1 km/h (2 Bft)
31.10.2017 01:00 22,5 C 4,2 C 58 % 88 % 1025,8 hPa 0,0 l/m 3,7 km/h (1 Bft) W-SW 0,00 h 0,0 UV-I 0 W/m 2,4 C 4,2 C 6,4 km/h (2 Bft)
31.10.2017 02:00 22,4 C 4,5 C 58 % 88 % 1025,8 hPa 0,0 l/m 5,3 km/h (1 Bft) W 0,00 h 0,0 UV-I 0 W/m 2,7 C 4,0 C 8,8 km/h (2 Bft)
31.10.2017 03:00 22,7 C 4,6 C 58 % 88 % 1025,8 hPa 0,0 l/m 1,7 km/h (1 Bft) N 0,00 h 0,0 UV-I 0 W/m 2,7 C 4,6 C 1,7 km/h (1 Bft)
31.10.2017 04:00 22,5 C 4,6 C 59 % 88 % 1025,9 hPa 0,0 l/m 2,3 km/h (1 Bft) W-SW 0,00 h 0,0 UV-I 0 W/m 2,8 C 4,6 C 4,2 km/h (1 Bft)
31.10.2017 05:00 22,3 C 4,5 C 59 % 88 % 1025,9 hPa 0,0 l/m 5,4 km/h (1 Bft) W-SW 0,00 h 0,0 UV-I 0 W/m 2,7 C 3,9 C 8,2 km/h (2 Bft)
31.10.2017 06:00 22,3 C 4,4 C 60 % 88 % 1026,1 hPa 0,0 l/m 5,6 km/h (1 Bft) W-NW 0,00 h 0,0 UV-I 0 W/m 2,6 C 3,9 C 9,8 km/h (2 Bft)
31.10.2017 07:00 22,6 C 4,5 C 59 % 87 % 1026,4 hPa 0,0 l/m 2,5 km/h (1 Bft) W-NW 0,00 h 0,0 UV-I 23 W/m 2,5 C 4,5 C 5,5 km/h (1 Bft)
31.10.2017 08:00 22,9 C 4,9 C 59 % 87 % 1026,7 hPa 0,0 l/m 2,1 km/h (1 Bft) W 0,08 h 0,5 UV-I 87 W/m 2,9 C 4,9 C 4,9 km/h (1 Bft)
31.10.2017 09:00 23,2 C 5,7 C 58 % 82 % 1026,8 hPa 0,0 l/m 5,2 km/h (1 Bft) W-NW 0,05 h 0,6 UV-I 112 W/m 2,9 C 5,1 C 8,7 km/h (2 Bft)
31.10.2017 10:00 23,4 C 6,4 C 57 % 79 % 1026,8 hPa 0,0 l/m 5,3 km/h (1 Bft) W-SW 0,78 h 1,1 UV-I 188 W/m 3,0 C 5,9 C 7,9 km/h (2 Bft)
31.10.2017 11:00 23,5 C 6,9 C 57 % 76 % 1026,5 hPa 0,0 l/m 6,2 km/h (2 Bft) W-SW 0,18 h 0,8 UV-I 133 W/m 2,9 C 6,0 C 11,3 km/h (2 Bft)
31.10.2017 12:00 23,2 C 6,8 C 57 % 75 % 1026,2 hPa 0,0 l/m 4,8 km/h (1 Bft) W-NW 0,25 h 0,9 UV-I 138 W/m 2,7 C 6,4 C 9,5 km/h (2 Bft)
31.10.2017 13:00 23,0 C 6,9 C 57 % 73 % 1026,1 hPa 0,0 l/m 6,0 km/h (2 Bft) W-NW 0,05 h 0,8 UV-I 118 W/m 2,4 C 6,0 C 10,4 km/h (2 Bft)
31.10.2017 14:00 22,9 C 6,9 C 58 % 74 % 1025,8 hPa 0,0 l/m 4,7 km/h (1 Bft) W-SW 0,07 h 0,6 UV-I 103 W/m 2,6 C 6,5 C 9,1 km/h (2 Bft)
31.10.2017 15:00 22,7 C 6,5 C 58 % 77 % 1025,7 hPa 0,0 l/m 3,9 km/h (1 Bft) W-SW 0,00 h 0,0 UV-I 38 W/m 2,7 C 6,4 C 7,9 km/h (2 Bft)
31.10.2017 16:00 22,7 C 6,1 C 58 % 79 % 1025,6 hPa 0,0 l/m 3,7 km/h (1 Bft) W-SW 0,00 h 0,0 UV-I 13 W/m 2,7 C 6,1 C 3,5 km/h (1 Bft)
31.10.2017 17:00 22,7 C 5,8 C 57 % 81 % 1025,8 hPa 0,0 l/m 1,8 km/h (1 Bft) N 0,00 h 0,0 UV-I 0 W/m 2,8 C 5,8 C 0,7 km/h (0 Bft)
31.10.2017 18:00 22,3 C 5,6 C 58 % 83 % 1026,1 hPa 0,0 l/m 1,6 km/h (1 Bft) N 0,00 h 0,0 UV-I 0 W/m 2,9 C 5,6 C 0,0 km/h (0 Bft)
31.10.2017 19:00 22,3 C 5,4 C 59 % 84 % 1026,2 hPa 0,0 l/m 2,2 km/h (1 Bft) SW 0,00 h 0,0 UV-I 0 W/m 2,8 C 5,4 C 3,8 km/h (1 Bft)
31.10.2017 20:00 22,6 C 5,2 C 59 % 85 % 1026,1 hPa 0,0 l/m 2,2 km/h (1 Bft) SW 0,00 h 0,0 UV-I 0 W/m 2,8 C 5,2 C 4,2 km/h (1 Bft)
31.10.2017 21:00 22,7 C 4,9 C 60 % 85 % 1026,1 hPa 0,0 l/m 2,1 km/h (1 Bft) W-SW 0,00 h 0,0 UV-I 0 W/m 2,6 C 4,9 C 4,3 km/h (1 Bft)
31.10.2017 22:00 22,6 C 4,6 C 60 % 86 % 1025,8 hPa 0,0 l/m 1,0 km/h (0 Bft) S-SW 0,00 h 0,0 UV-I 0 W/m 2,5 C 4,6 C 2,5 km/h (1 Bft)
31.10.2017 23:00 22,6 C 4,3 C 60 % 88 % 1025,5 hPa 0,0 l/m 0,9 km/h (0 Bft) S 0,00 h 0,0 UV-I 0 W/m 2,4 C 4,3 C 2,2 km/h (1 Bft)
01.11.2017 00:00 22,4 C 4,0 C 61 % 88 % 1025,1 hPa 0,0 l/m 0,7 km/h (0 Bft) S 0,00 h 0,0 UV-I 0 W/m 2,2 C 4,0 C 1,5 km/h (1 Bft)
01.11.2017 01:00 22,4 C 3,5 C 61 % 88 % 1024,8 hPa 0,0 l/m 0,0 km/h (0 Bft) N 0,00 h 0,0 UV-I 0 W/m 1,7 C 3,5 C 0,0 km/h (0 Bft)
01.11.2017 02:00 22,4 C 3,2 C 61 % 89 % 1024,6 hPa 0,0 l/m 0,0 km/h (0 Bft) N 0,00 h 0,0 UV-I 0 W/m 1,6 C 3,2 C 0,0 km/h (0 Bft)
01.11.2017 03:00 22,4 C 3,4 C 61 % 90 % 1024,4 hPa 0,0 l/m 3,1 km/h (1 Bft) S 0,00 h 0,0 UV-I 0 W/m 1,9 C 3,3 C 5,4 km/h (1 Bft)
01.11.2017 04:00 22,3 C 3,8 C 61 % 88 % 1024,1 hPa 0,0 l/m 4,3 km/h (1 Bft) S 0,00 h 0,0 UV-I 0 W/m 2,1 C 3,8 C 7,4 km/h (2 Bft)
01.11.2017 05:00 22,3 C 4,0 C 61 % 88 % 1023,9 hPa 0,0 l/m 3,9 km/h (1 Bft) S 0,00 h 0,0 UV-I 0 W/m 2,3 C 4,0 C 7,2 km/h (2 Bft)
01.11.2017 06:00 22,4 C 4,1 C 61 % 89 % 1023,8 hPa 0,0 l/m 3,0 km/h (1 Bft) S 0,00 h 0,0 UV-I 0 W/m 2,5 C 4,0 C 6,0 km/h (2 Bft)
01.11.2017 07:00 22,8 C 3,9 C 61 % 92 % 1024,0 hPa 0,0 l/m 2,6 km/h (1 Bft) S 0,00 h 0,0 UV-I 12 W/m 2,6 C 3,9 C 4,9 km/h (1 Bft)
01.11.2017 08:00 22,9 C 4,2 C 60 % 93 % 1024,1 hPa 0,2 l/m 2,5 km/h (1 Bft) S 0,00 h 0,0 UV-I 28 W/m 3,1 C 4,2 C 5,3 km/h (1 Bft)
01.11.2017 09:00 22,7 C 4,6 C 59 % 92 % 1024,2 hPa 0,0 l/m 1,9 km/h (1 Bft) SW 0,00 h 0,0 UV-I 35 W/m 3,4 C 4,5 C 4,1 km/h (1 Bft)
01.11.2017 10:00 22,8 C 5,1 C 57 % 92 % 1024,3 hPa 0,0 l/m 2,2 km/h (1 Bft) SW 0,00 h 0,5 UV-I 58 W/m 3,9 C 5,1 C 5,5 km/h (1 Bft)
01.11.2017 11:00 22,8 C 5,6 C 55 % 92 % 1024,0 hPa 0,0 l/m 2,0 km/h (1 Bft) N 0,00 h 0,5 UV-I 65 W/m 4,3 C 5,6 C 2,2 km/h (1 Bft)
01.11.2017 12:00 23,1 C 6,0 C 54 % 92 % 1023,6 hPa 0,0 l/m 1,4 km/h (1 Bft) S 0,00 h 0,6 UV-I 77 W/m 4,8 C 6,0 C 3,2 km/h (1 Bft)
01.11.2017 13:00 23,2 C 6,4 C 53 % 92 % 1023,3 hPa 0,0 l/m 1,9 km/h (1 Bft) S 0,00 h 0,5 UV-I 55 W/m 5,2 C 6,3 C 5,2 km/h (1 Bft)
01.11.2017 14:00 23,3 C 6,8 C 53 % 92 % 1022,8 hPa 0,0 l/m 2,3 km/h (1 Bft) SW 0,00 h 0,5 UV-I 76 W/m 5,6 C 6,8 C 5,5 km/h (1 Bft)
01.11.2017 15:00 23,2 C 7,5 C 54 % 89 % 1022,4 hPa 0,0 l/m 1,6 km/h (1 Bft) S-SW 0,00 h 0,0 UV-I 59 W/m 5,9 C 7,5 C 5,0 km/h (1 Bft)
01.11.2017 16:00 23,1 C 7,4 C 54 % 88 % 1022,4 hPa 0,0 l/m 0,2 km/h (0 Bft) S 0,00 h 0,0 UV-I 20 W/m 5,6 C 7,4 C 1,0 km/h (0 Bft)
01.11.2017 17:00 23,0 C 6,6 C 55 % 89 % 1022,6 hPa 0,0 l/m 0,0 km/h (0 Bft) S-SO 0,00 h 0,0 UV-I 0 W/m 4,9 C 6,6 C 0,3 km/h (0 Bft)
01.11.2017 18:00 22,9 C 6,0 C 55 % 91 % 1022,6 hPa 0,0 l/m 0,4 km/h (0 Bft) S-SO 0,00 h 0,0 UV-I 0 W/m 4,6 C 6,0 C 0,9 km/h (0 Bft)
01.11.2017 19:00 23,0 C 5,4 C 56 % 93 % 1022,2 hPa 0,0 l/m 0,7 km/h (0 Bft) S-SO 0,00 h 0,0 UV-I 0 W/m 4,4 C 5,4 C 1,1 km/h (0 Bft)
01.11.2017 20:00 23,0 C 5,0 C 57 % 93 % 1022,1 hPa 0,0 l/m 0,0 km/h (0 Bft) N 0,00 h 0,0 UV-I 0 W/m 3,9 C 5,0 C 0,0 km/h (0 Bft)
01.11.2017 21:00 22,9 C 4,4 C 57 % 93 % 1022,0 hPa 0,0 l/m 0,0 km/h (0 Bft) N 0,00 h 0,0 UV-I 0 W/m 3,3 C 4,4 C 0,0 km/h (0 Bft)
01.11.2017 22:00 22,8 C 4,3 C 58 % 94 % 1021,5 hPa 0,0 l/m 0,0 km/h (0 Bft) N 0,00 h 0,0 UV-I 0 W/m 3,4 C 4,3 C 0,0 km/h (0 Bft)
01.11.2017 23:00 22,7 C 4,3 C 59 % 94 % 1021,1 hPa 0,0 l/m 0,0 km/h (0 Bft) N 0,00 h 0,0 UV-I 0 W/m 3,5 C 4,3 C 0,0 km/h (0 Bft)
02.11.2017 00:00 22,6 C 4,2 C 59 % 95 % 1020,3 hPa 0,0 l/m 0,1 km/h (0 Bft) S 0,00 h 0,0 UV-I 0 W/m 3,5 C 4,2 C 0,1 km/h (0 Bft)
02.11.2017 01:00 22,6 C 3,8 C 60 % 95 % 1019,5 hPa 0,0 l/m 0,0 km/h (0 Bft) N 0,00 h 0,0 UV-I 0 W/m 3,1 C 3,8 C 0,0 km/h (0 Bft)
02.11.2017 02:00 22,5 C 3,8 C 60 % 95 % 1019,0 hPa 0,0 l/m 0,0 km/h (0 Bft) N 0,00 h 0,0 UV-I 0 W/m 3,1 C 3,8 C 0,0 km/h (0 Bft)
02.11.2017 03:00 22,4 C 4,1 C 61 % 95 % 1018,3 hPa 0,0 l/m 0,0 km/h (0 Bft) N 0,00 h 0,0 UV-I 0 W/m 3,4 C 4,1 C 0,1 km/h (0 Bft)
02.11.2017 04:00 22,4 C 4,3 C 61 % 95 % 1017,4 hPa 0,0 l/m 0,0 km/h (0 Bft) N 0,00 h 0,0 UV-I 0 W/m 3,6 C 4,3 C 0,0 km/h (0 Bft)
02.11.2017 05:00 22,4 C 4,2 C 62 % 95 % 1016,4 hPa 0,0 l/m 0,0 km/h (0 Bft) W-SW 0,00 h 0,0 UV-I 0 W/m 3,6 C 4,2 C 0,1 km/h (0 Bft)
02.11.2017 06:00 22,4 C 4,4 C 62 % 96 % 1016,0 hPa 0,0 l/m 1,4 km/h (1 Bft) W-NW 0,00 h 0,0 UV-I 0 W/m 3,8 C 4,4 C 3,6 km/h (1 Bft)
02.11.2017 07:00 22,7 C 4,6 C 61 % 96 % 1016,0 hPa 0,0 l/m 0,3 km/h (0 Bft) SW 0,00 h 0,0 UV-I 18 W/m 4,0 C 4,6 C 1,1 km/h (1 Bft)
02.11.2017 08:00 20,0 C 5,3 C 53 % 95 % 1015,9 hPa 0,0 l/m 0,2 km/h (0 Bft) SW 0,12 h 0,5 UV-I 94 W/m 4,6 C 5,3 C 0,7 km/h (0 Bft)
02.11.2017 09:00 18,6 C 7,9 C 52 % 88 % 1015,3 hPa 0,0 l/m 1,5 km/h (1 Bft) W-SW 1,00 h 0,8 UV-I 263 W/m 6,0 C 7,8 C 5,3 km/h (1 Bft)
02.11.2017 10:00 21,7 C 10,2 C 48 % 79 % 1014,6 hPa 0,0 l/m 5,0 km/h (1 Bft) S 1,00 h 1,3 UV-I 400 W/m 6,7 C 9,8 C 11,3 km/h (2 Bft)
02.11.2017 11:00 21,9 C 9,8 C 47 % 81 % 1014,0 hPa 0,0 l/m 4,8 km/h (1 Bft) S-SW 1,00 h 1,2 UV-I 211 W/m 6,6 C 9,3 C 11,1 km/h (2 Bft)
02.11.2017 12:00 23,3 C 11,2 C 47 % 77 % 1013,1 hPa 0,0 l/m 4,6 km/h (1 Bft) SW 0,70 h 1,2 UV-I 244 W/m 7,3 C 10,9 C 11,6 km/h (2 Bft)
02.11.2017 13:00 23,4 C 12,0 C 45 % 74 % 1012,8 hPa 0,0 l/m 9,3 km/h (2 Bft) W-SW 0,05 h 0,8 UV-I 108 W/m 7,5 C 10,1 C 16,8 km/h (3 Bft)
02.11.2017 14:00 23,4 C 11,9 C 47 % 74 % 1012,8 hPa 0,0 l/m 12,9 km/h (3 Bft) W-SW 0,00 h 0,6 UV-I 86 W/m 7,4 C 8,4 C 21,2 km/h (4 Bft)
02.11.2017 15:00 23,4 C 11,7 C 48 % 77 % 1013,0 hPa 0,0 l/m 9,6 km/h (2 Bft) W-SW 0,00 h 0,0 UV-I 64 W/m 7,8 C 9,7 C 16,4 km/h (3 Bft)
02.11.2017 16:00 23,4 C 11,2 C 50 % 80 % 1013,1 hPa 0,0 l/m 7,6 km/h (2 Bft) W-SW 0,00 h 0,0 UV-I 6 W/m 7,9 C 10,1 C 13,9 km/h (3 Bft)
02.11.2017 17:00 22,7 C 10,5 C 51 % 83 % 1013,2 hPa 0,0 l/m 5,2 km/h (1 Bft) SW 0,00 h 0,0 UV-I 0 W/m 7,8 C 9,9 C 10,7 km/h (2 Bft)
02.11.2017 18:00 23,3 C 9,9 C 56 % 86 % 1013,9 hPa 0,0 l/m 0,4 km/h (0 Bft) W-SW 0,00 h 0,0 UV-I 0 W/m 7,6 C 9,9 C 1,5 km/h (1 Bft)
02.11.2017 19:00 23,4 C 9,7 C 55 % 85 % 1014,5 hPa 0,0 l/m 0,4 km/h (0 Bft) W-NW 0,00 h 0,0 UV-I 0 W/m 7,3 C 9,7 C 1,1 km/h (1 Bft)
02.11.2017 20:00 23,4 C 9,5 C 55 % 83 % 1015,0 hPa 0,0 l/m 0,0 km/h (0 Bft) N 0,00 h 0,0 UV-I 0 W/m 6,8 C 9,5 C 0,0 km/h (0 Bft)
02.11.2017 21:00 23,3 C 8,5 C 55 % 84 % 1015,3 hPa 0,0 l/m 0,0 km/h (0 Bft) N 0,00 h 0,0 UV-I 0 W/m 5,9 C 8,5 C 0,0 km/h (0 Bft)
02.11.2017 22:00 23,1 C 7,1 C 57 % 86 % 1015,7 hPa 0,0 l/m 0,0 km/h (0 Bft) N 0,00 h 0,0 UV-I 0 W/m 4,9 C 7,1 C 0,0 km/h (0 Bft)
02.11.2017 23:00 22,9 C 6,2 C 58 % 89 % 1016,0 hPa 0,0 l/m 0,0 km/h (0 Bft) N 0,00 h 0,0 UV-I 0 W/m 4,5 C 6,2 C 0,0 km/h (0 Bft)
03.11.2017 00:00 22,7 C 6,0 C 58 % 91 % 1016,2 hPa 0,0 l/m 0,0 km/h (0 Bft) N 0,00 h 0,0 UV-I 0 W/m 4,6 C 6,0 C 0,0 km/h (0 Bft)
03.11.2017 01:00 22,7 C 5,7 C 58 % 92 % 1016,5 hPa 0,0 l/m 0,0 km/h (0 Bft) N 0,00 h 0,0 UV-I 0 W/m 4,5 C 5,7 C 0,0 km/h (0 Bft)
03.11.2017 02:00 22,6 C 5,8 C 59 % 93 % 1016,7 hPa 0,0 l/m 0,0 km/h (0 Bft) N 0,00 h 0,0 UV-I 0 W/m 4,7 C 5,8 C 0,0 km/h (0 Bft)
03.11.2017 03:00 22,6 C 5,8 C 59 % 93 % 1016,9 hPa 0,0 l/m 0,0 km/h (0 Bft) N 0,00 h 0,0 UV-I 0 W/m 4,7 C 5,8 C 0,0 km/h (0 Bft)
03.11.2017 04:00 22,6 C 5,9 C 59 % 94 % 1017,1 hPa 0,0 l/m 0,0 km/h (0 Bft) N 0,00 h 0,0 UV-I 0 W/m 5,0 C 5,9 C 0,0 km/h (0 Bft)
03.11.2017 05:00 22,5 C 5,8 C 59 % 94 % 1017,2 hPa 0,0 l/m 0,0 km/h (0 Bft) N 0,00 h 0,0 UV-I 0 W/m 4,9 C 5,8 C 0,0 km/h (0 Bft)
03.11.2017 06:00 22,5 C 5,4 C 59 % 93 % 1017,4 hPa 0,0 l/m 0,0 km/h (0 Bft) N 0,00 h 0,0 UV-I 0 W/m 4,4 C 5,4 C 0,0 km/h (0 Bft)
03.11.2017 07:00 22,9 C 4,5 C 58 % 93 % 1018,0 hPa 0,0 l/m 0,0 km/h (0 Bft) N 0,00 h 0,0 UV-I 23 W/m 3,5 C 4,5 C 0,0 km/h (0 Bft)
03.11.2017 08:00 23,3 C 5,4 C 58 % 95 % 1018,5 hPa 0,0 l/m 0,0 km/h (0 Bft) N 0,37 h 0,5 UV-I 134 W/m 4,6 C 5,4 C 0,0 km/h (0 Bft)
03.11.2017 09:00 24,9 C 8,3 C 51 % 88 % 1018,6 hPa 0,0 l/m 0,0 km/h (0 Bft) N 1,00 h 0,9 UV-I 274 W/m 6,4 C 8,3 C 0,0 km/h (0 Bft)
03.11.2017 10:00 25,3 C 10,4 C 43 % 79 % 1018,7 hPa 0,0 l/m 0,0 km/h (0 Bft) N 1,00 h 1,3 UV-I 374 W/m 6,9 C 10,4 C 0,1 km/h (0 Bft)
03.11.2017 11:00 25,2 C 11,6 C 41 % 71 % 1018,5 hPa 0,0 l/m 0,2 km/h (0 Bft) SO 0,97 h 1,6 UV-I 436 W/m 6,5 C 11,6 C 0,6 km/h (0 Bft)
03.11.2017 12:00 25,3 C 12,2 C 38 % 67 % 1018,1 hPa 0,0 l/m 0,9 km/h (0 Bft) SO 1,00 h 1,5 UV-I 475 W/m 6,3 C 12,2 C 3,1 km/h (1 Bft)
03.11.2017 13:00 24,9 C 12,2 C 37 % 68 % 1017,7 hPa 0,0 l/m 1,0 km/h (0 Bft) SO 1,00 h 1,2 UV-I 356 W/m 6,5 C 12,2 C 2,2 km/h (1 Bft)
03.11.2017 14:00 24,9 C 12,4 C 40 % 66 % 1017,4 hPa 0,0 l/m 1,2 km/h (1 Bft) W-SW 1,00 h 0,8 UV-I 256 W/m 6,2 C 12,4 C 3,3 km/h (1 Bft)
03.11.2017 15:00 24,9 C 11,8 C 42 % 67 % 1017,2 hPa 0,0 l/m 0,6 km/h (0 Bft) S-SW 0,23 h 0,5 UV-I 109 W/m 5,8 C 11,8 C 2,3 km/h (1 Bft)
03.11.2017 16:00 24,6 C 10,0 C 45 % 75 % 1017,1 hPa 0,0 l/m 0,0 km/h (0 Bft) N 0,00 h 0,0 UV-I 18 W/m 5,7 C 10,0 C 0,2 km/h (0 Bft)
03.11.2017 17:00 24,3 C 8,4 C 48 % 80 % 1017,2 hPa 0,0 l/m 0,0 km/h (0 Bft) N 0,00 h 0,0 UV-I 0 W/m 5,1 C 8,4 C 0,0 km/h (0 Bft)
03.11.2017 18:00 24,0 C 6,5 C 53 % 85 % 1017,2 hPa 0,0 l/m 0,4 km/h (0 Bft) O-NO 0,00 h 0,0 UV-I 0 W/m 4,1 C 6,5 C 0,8 km/h (0 Bft)
03.11.2017 19:00 23,7 C 4,8 C 54 % 88 % 1017,0 hPa 0,0 l/m 0,0 km/h (0 Bft) N 0,00 h 0,0 UV-I 0 W/m 3,0 C 4,8 C 0,0 km/h (0 Bft)
03.11.2017 20:00 23,5 C 3,7 C 55 % 89 % 1017,0 hPa 0,0 l/m 0,0 km/h (0 Bft) N 0,00 h 0,0 UV-I 0 W/m 2,1 C 3,7 C 0,0 km/h (0 Bft)
03.11.2017 21:00 23,2 C 2,6 C 56 % 90 % 1016,9 hPa 0,0 l/m 0,0 km/h (0 Bft) N 0,00 h 0,0 UV-I 0 W/m 1,1 C 2,6 C 0,0 km/h (0 Bft)
03.11.2017 22:00 22,8 C 1,8 C 56 % 91 % 1016,6 hPa 0,0 l/m 0,0 km/h (0 Bft) N 0,00 h 0,0 UV-I 0 W/m 0,5 C 1,8 C 0,0 km/h (0 Bft)
03.11.2017 23:00 22,7 C 1,1 C 58 % 91 % 1016,4 hPa 0,0 l/m 0,0 km/h (0 Bft) N 0,00 h 0,0 UV-I 0 W/m -0,2 C 1,1 C 0,0 km/h (0 Bft)
04.11.2017 00:00 22,6 C 0,5 C 58 % 92 % 1016,2 hPa 0,0 l/m 0,0 km/h (0 Bft) N 0,00 h 0,0 UV-I 0 W/m -0,7 C 0,5 C 0,0 km/h (0 Bft)
04.11.2017 01:00 22,4 C -0,0 C 58 % 92 % 1016,0 hPa 0,0 l/m 0,0 km/h (0 Bft) N 0,00 h 0,0 UV-I 0 W/m -1,1 C -0,0 C 0,0 km/h (0 Bft)
04.11.2017 02:00 22,4 C -0,5 C 59 % 93 % 1015,6 hPa 0,0 l/m 0,0 km/h (0 Bft) N 0,00 h 0,0 UV-I 0 W/m -1,5 C -0,5 C 0,0 km/h (0 Bft)
04.11.2017 03:00 22,3 C -0,8 C 60 % 93 % 1015,2 hPa 0,0 l/m 0,0 km/h (0 Bft) N 0,00 h 0,0 UV-I 0 W/m -1,8 C -0,8 C 0,0 km/h (0 Bft)
04.11.2017 04:00 22,3 C -1,2 C 60 % 93 % 1014,9 hPa 0,0 l/m 0,0 km/h (0 Bft) N 0,00 h 0,0 UV-I 0 W/m -2,2 C -1,2 C 0,0 km/h (0 Bft)
04.11.2017 05:00 22,2 C -1,4 C 60 % 93 % 1014,9 hPa 0,0 l/m 0,0 km/h (0 Bft) N 0,00 h 0,0 UV-I 0 W/m -2,3 C -1,4 C 0,0 km/h (0 Bft)
04.11.2017 06:00 22,1 C -1,5 C 61 % 94 % 1014,8 hPa 0,0 l/m 0,0 km/h (0 Bft) N 0,00 h 0,0 UV-I 6 W/m -2,3 C -1,5 C 0,0 km/h (0 Bft)
04.11.2017 07:00 22,2 C -1,4 C 61 % 94 % 1015,0 hPa 0,0 l/m 0,0 km/h (0 Bft) N 0,00 h 0,0 UV-I 28 W/m -2,2 C -1,4 C 0,0 km/h (0 Bft)
04.11.2017 08:00 22,9 C 0,5 C 59 % 95 % 1015,1 hPa 0,0 l/m 0,0 km/h (0 Bft) N 0,12 h 0,5 UV-I 108 W/m -0,2 C 0,5 C 0,0 km/h (0 Bft)
04.11.2017 09:00 23,6 C 2,4 C 55 % 94 % 1014,8 hPa 0,0 l/m 0,0 km/h (0 Bft) N 0,27 h 0,6 UV-I 147 W/m 1,5 C 2,4 C 0,0 km/h (0 Bft)
04.11.2017 10:00 23,9 C 5,4 C 51 % 89 % 1014,6 hPa 0,0 l/m 0,0 km/h (0 Bft) N 1,00 h 1,0 UV-I 244 W/m 3,7 C 5,4 C 0,0 km/h (0 Bft)
04.11.2017 11:00 24,1 C 7,5 C 51 % 85 % 1014,1 hPa 0,0 l/m 0,0 km/h (0 Bft) N 1,00 h 1,1 UV-I 193 W/m 5,1 C 7,5 C 0,0 km/h (0 Bft)
04.11.2017 12:00 24,0 C 8,2 C 54 % 84 % 1013,6 hPa 0,0 l/m 0,0 km/h (0 Bft) N 0,38 h 0,9 UV-I 167 W/m 5,7 C 8,2 C 0,0 km/h (0 Bft)
04.11.2017 13:00 23,8 C 9,8 C 53 % 81 % 1013,4 hPa 0,0 l/m 0,5 km/h (0 Bft) S 0,58 h 0,9 UV-I 178 W/m 6,7 C 9,8 C 1,7 km/h (1 Bft)
04.11.2017 14:00 23,7 C 9,7 C 53 % 82 % 1013,0 hPa 0,0 l/m 0,0 km/h (0 Bft) N 0,20 h 0,6 UV-I 144 W/m 6,8 C 9,7 C 0,0 km/h (0 Bft)
04.11.2017 15:00 23,7 C 10,2 C 51 % 82 % 1013,0 hPa 0,0 l/m 1,0 km/h (0 Bft) S 0,05 h 0,5 UV-I 91 W/m 7,4 C 10,2 C 2,8 km/h (1 Bft)
04.11.2017 16:00 23,6 C 9,4 C 52 % 86 % 1013,2 hPa 0,0 l/m 0,0 km/h (0 Bft) N 0,00 h 0,0 UV-I 21 W/m 7,1 C 9,4 C 0,0 km/h (0 Bft)
04.11.2017 17:00 23,3 C 8,5 C 54 % 87 % 1013,2 hPa 0,0 l/m 0,0 km/h (0 Bft) N 0,00 h 0,0 UV-I 0 W/m 6,4 C 8,5 C 0,0 km/h (0 Bft)
04.11.2017 18:00 23,2 C 7,2 C 54 % 88 % 1013,5 hPa 0,0 l/m 0,0 km/h (0 Bft) N 0,00 h 0,0 UV-I 0 W/m 5,3 C 7,2 C 0,0 km/h (0 Bft)
04.11.2017 19:00 22,9 C 5,8 C 55 % 89 % 1013,5 hPa 0,0 l/m 0,0 km/h (0 Bft) N 0,00 h 0,0 UV-I 0 W/m 4,2 C 5,8 C 0,0 km/h (0 Bft)
04.11.2017 20:00 22,8 C 4,5 C 57 % 91 % 1013,5 hPa 0,0 l/m 0,0 km/h (0 Bft) N 0,00 h 0,0 UV-I 0 W/m 3,1 C 4,5 C 0,0 km/h (0 Bft)
04.11.2017 21:00 22,6 C 3,7 C 58 % 92 % 1013,4 hPa 0,0 l/m 0,0 km/h (0 Bft) N 0,00 h 0,0 UV-I 0 W/m 2,5 C 3,7 C 0,0 km/h (0 Bft)
04.11.2017 22:00 22,6 C 2,9 C 58 % 92 % 1012,9 hPa 0,0 l/m 0,0 km/h (0 Bft) N 0,00 h 0,0 UV-I 0 W/m 1,8 C 2,9 C 0,0 km/h (0 Bft)
04.11.2017 23:00 22,5 C 2,5 C 59 % 93 % 1012,4 hPa 0,0 l/m 0,0 km/h (0 Bft) N 0,00 h 0,0 UV-I 0 W/m 1,5 C 2,5 C 0,0 km/h (0 Bft)
05.11.2017 00:00 22,4 C 2,0 C 59 % 94 % 1012,2 hPa 0,0 l/m 0,0 km/h (0 Bft) N 0,00 h 0,0 UV-I 0 W/m 1,1 C 2,0 C 0,0 km/h (0 Bft)
05.11.2017 01:00 22,4 C 1,8 C 60 % 94 % 1011,7 hPa 0,0 l/m 0,0 km/h (0 Bft) N 0,00 h 0,0 UV-I 0 W/m 0,9 C 1,8 C 0,0 km/h (0 Bft)
05.11.2017 02:00 22,3 C 1,6 C 61 % 94 % 1011,3 hPa 0,0 l/m 0,0 km/h (0 Bft) N 0,00 h 0,0 UV-I 0 W/m 0,8 C 1,6 C 0,0 km/h (0 Bft)
05.11.2017 03:00 22,3 C 1,3 C 62 % 95 % 1010,7 hPa 0,0 l/m 0,0 km/h (0 Bft) N 0,00 h 0,0 UV-I 0 W/m 0,6 C 1,3 C 0,0 km/h (0 Bft)
05.11.2017 04:00 22,3 C 0,9 C 62 % 95 % 1009,6 hPa 0,0 l/m 0,0 km/h (0 Bft) N 0,00 h 0,0 UV-I 0 W/m 0,2 C 0,9 C 0,0 km/h (0 Bft)
05.11.2017 05:00 22,2 C 0,8 C 62 % 95 % 1009,3 hPa 0,0 l/m 0,0 km/h (0 Bft) N 0,00 h 0,0 UV-I 0 W/m 0,1 C 0,8 C 0,0 km/h (0 Bft)
05.11.2017 06:00 22,2 C 0,8 C 62 % 95 % 1008,8 hPa 0,0 l/m 0,0 km/h (0 Bft) N 0,00 h 0,0 UV-I 0 W/m 0,1 C 0,8 C 0,0 km/h (0 Bft)
05.11.2017 07:00 22,2 C 1,2 C 62 % 96 % 1008,8 hPa 0,0 l/m 0,0 km/h (0 Bft) N 0,00 h 0,0 UV-I 13 W/m 0,6 C 1,2 C 0,0 km/h (0 Bft)
05.11.2017 08:00 22,7 C 3,1 C 60 % 96 % 1008,5 hPa 0,0 l/m 0,0 km/h (0 Bft) O-NO 0,07 h 0,5 UV-I 95 W/m 2,5 C 3,1 C 0,2 km/h (0 Bft)
05.11.2017 09:00 23,1 C 8,2 C 59 % 90 % 1007,6 hPa 0,0 l/m 1,6 km/h (1 Bft) NO 0,95 h 0,7 UV-I 233 W/m 6,6 C 8,2 C 4,3 km/h (1 Bft)
05.11.2017 10:00 22,3 C 10,2 C 48 % 82 % 1007,5 hPa 0,0 l/m 1,2 km/h (1 Bft) O-NO 0,92 h 1,1 UV-I 353 W/m 7,3 C 10,2 C 2,3 km/h (1 Bft)
05.11.2017 11:00 22,2 C 11,0 C 48 % 79 % 1007,1 hPa 0,0 l/m 1,7 km/h (1 Bft) O-NO 1,00 h 1,3 UV-I 352 W/m 7,4 C 11,0 C 3,9 km/h (1 Bft)
05.11.2017 12:00 21,4 C 10,5 C 49 % 80 % 1006,6 hPa 0,0 l/m 1,0 km/h (0 Bft) O-NO 0,77 h 1,1 UV-I 246 W/m 7,3 C 10,5 C 3,4 km/h (1 Bft)
05.11.2017 13:00 22,0 C 9,3 C 54 % 83 % 1006,5 hPa 0,0 l/m 1,8 km/h (1 Bft) O-NO 0,00 h 0,6 UV-I 104 W/m 6,6 C 9,2 C 4,7 km/h (1 Bft)
05.11.2017 14:00 23,2 C 7,9 C 54 % 86 % 1006,3 hPa 0,0 l/m 1,2 km/h (1 Bft) O-NO 0,00 h 0,0 UV-I 44 W/m 5,8 C 7,8 C 3,5 km/h (1 Bft)
05.11.2017 15:00 23,1 C 7,7 C 56 % 87 % 1007,0 hPa 0,0 l/m 1,8 km/h (1 Bft) NO 0,00 h 0,0 UV-I 10 W/m 5,7 C 7,6 C 3,4 km/h (1 Bft)
05.11.2017 16:00 23,1 C 6,9 C 58 % 90 % 1007,7 hPa 1,8 l/m 0,0 km/h (0 Bft) N 0,00 h 0,0 UV-I 0 W/m 5,3 C 6,9 C 0,0 km/h (0 Bft)
05.11.2017 17:00 23,1 C 6,3 C 58 % 93 % 1008,4 hPa 1,8 l/m 0,0 km/h (0 Bft) N 0,00 h 0,0 UV-I 0 W/m 5,2 C 6,3 C 0,0 km/h (0 Bft)
05.11.2017 18:00 22,9 C 6,4 C 57 % 95 % 1009,8 hPa 1,6 l/m 5,1 km/h (1 Bft) NW 0,00 h 0,0 UV-I 0 W/m 5,6 C 5,6 C 9,2 km/h (2 Bft)
05.11.2017 19:00 22,7 C 6,5 C 56 % 95 % 1010,8 hPa 1,2 l/m 6,9 km/h (2 Bft) NW 0,00 h 0,0 UV-I 0 W/m 5,8 C 5,4 C 12,7 km/h (3 Bft)
05.11.2017 20:00 22,7 C 6,0 C 59 % 95 % 1011,5 hPa 0,6 l/m 5,5 km/h (1 Bft) NW 0,00 h 0,0 UV-I 0 W/m 5,3 C 5,4 C 10,5 km/h (2 Bft)
05.11.2017 21:00 22,7 C 5,5 C 60 % 95 % 1012,3 hPa 0,4 l/m 6,0 km/h (2 Bft) NW 0,00 h 0,0 UV-I 0 W/m 4,7 C 4,7 C 10,9 km/h (2 Bft)
05.11.2017 22:00 22,6 C 5,1 C 61 % 94 % 1013,2 hPa 0,2 l/m 6,1 km/h (2 Bft) W-NW 0,00 h 0,0 UV-I 0 W/m 4,2 C 4,1 C 10,7 km/h (2 Bft)
05.11.2017 23:00 22,7 C 4,7 C 61 % 94 % 1013,7 hPa 0,0 l/m 2,5 km/h (1 Bft) NW 0,00 h 0,0 UV-I 0 W/m 3,8 C 4,7 C 6,1 km/h (2 Bft)
Min-Datum _ 02.11.17 04.11.17 30.10.17 30.10.17 05.11.17 - 30.10.17 - - - - 04.11.17 30.10.17 30.10.17
_ Min-Zeit 08:52 06:54 13:16 13:33 14:01 - 02:29 - - - - 06:54 09:16 02:32
Minimum _ 17,3 C -1,6 C 30 % 52 % 1005,2 hPa - 0,0 km/h (0 Bft) - - - - -2,4 C -3,8 C 0,0 km/h (0 Bft)
Max-Datum _ 03.11.17 03.11.17 30.10.17 05.11.17 31.10.17 05.11.17 02.11.17 - 05.11.17 30.10.17 30.10.17 05.11.17 03.11.17 30.10.17
_ Max-Zeit 10:05 12:49 03:56 08:29 10:13 16:04 14:10 - 09:35 11:58 12:05 11:03 12:49 12:25
Maximum _ 25,6 C 13,1 C 63 % 97 % 1027,0 hPa 1,8 l/m 29,0 km/h
W-SW (5 Bft)
- 0,08 h 1,9 UV-I 598 W/m 8,3 C 13,1 C 37,0 km/h
NW (5 Bft)
Durchschnitt _ 22,9 C 5,6 C 56 % 87 % 1018,1 hPa #8,4 l/m 2,4 km/h (1 Bft) W-SW #22:12 h 0,8 UV-I 139 W/m 3,5 C 5,2 C 4,3 km/h (1 Bft)